Time;durP1;ratioP1;P1;durP2;ratioP2;P2;SDS_P1;SDS_P2;PMS_P1;PMS_P2;Temp;Humidity;BMP_temperature;BMP_pressure;BME280_temperature;BME280_humidity;BME280_pressure;Samples;Min_cycle;Max_cycle;Signal;HPM_P1;HPM_P2
2021/03/02 00:00:19;;;;;;;50.35;26.75;;;;;;;3.76;90.96;103203.72;5003997;28;20452;-75
2021/03/02 00:02:44;;;;;;;54.13;26.20;;;;;;;3.91;91.44;103230.53;5005272;28;20038;-74
2021/03/02 00:05:12;;;;;;;53.50;27.33;;;;;;;3.86;90.91;103230.69;5015953;28;20038;-74
2021/03/02 00:07:38;;;;;;;60.85;27.50;;;;;;;3.76;91.67;103230.13;5007312;28;20096;-74
2021/03/02 00:10:06;;;;;;;50.67;26.70;;;;;;;3.75;91.97;103235.44;5003981;28;20028;-74
2021/03/02 00:12:32;;;;;;;55.58;27.40;;;;;;;3.70;92.37;103237.38;4988597;28;20453;-74
2021/03/02 00:14:58;;;;;;;48.35;26.23;;;;;;;3.59;92.45;103224.50;5003513;28;20030;-74
2021/03/02 00:17:42;;;;;;;56.10;26.45;;;;;;;3.62;92.70;103232.34;5002922;28;20824;-74
2021/03/02 00:20:10;;;;;;;57.97;26.67;;;;;;;3.59;92.37;103241.25;5005263;28;20230;-74
2021/03/02 00:22:58;;;;;;;61.53;27.75;;;;;;;3.51;92.60;103230.91;5020655;28;20481;-74
2021/03/02 00:25:32;;;;;;;54.70;26.47;;;;;;;3.46;93.26;103235.47;5018104;28;20377;-74
2021/03/02 00:28:00;;;;;;;58.78;27.75;;;;;;;3.20;93.22;103200.19;5005565;28;20511;-74
2021/03/02 00:30:26;;;;;;;59.22;28.05;;;;;;;3.39;93.47;103233.06;5007132;28;20038;-74
2021/03/02 00:32:53;;;;;;;54.78;28.05;;;;;;;3.36;93.75;103234.88;4986871;28;20037;-75
2021/03/02 00:35:18;;;;;;;61.22;29.15;;;;;;;3.04;93.71;103189.25;5002427;28;20512;-74
2021/03/02 00:37:47;;;;;;;62.20;28.65;;;;;;;3.28;93.73;103226.34;5003590;28;20033;-74
2021/03/02 00:40:13;;;;;;;56.28;27.92;;;;;;;3.11;93.15;103208.38;5005501;28;20120;-74
2021/03/02 00:42:39;;;;;;;57.35;28.40;;;;;;;3.24;93.83;103223.84;5004951;28;20037;-74
2021/03/02 00:45:06;;;;;;;57.15;27.35;;;;;;;2.60;94.08;103134.25;5000652;28;20018;-74
2021/03/02 00:47:31;;;;;;;58.75;28.10;;;;;;;3.05;94.41;103198.00;5006347;28;20125;-74
2021/03/02 00:49:57;;;;;;;58.10;28.88;;;;;;;3.14;94.13;103226.75;5002715;28;20030;-74
2021/03/02 00:52:22;;;;;;;54.58;27.67;;;;;;;3.11;94.90;103225.97;5006638;28;20559;-74
2021/03/02 00:54:48;;;;;;;57.53;28.38;;;;;;;2.91;94.71;103198.44;5005186;28;20126;-74
2021/03/02 00:57:13;;;;;;;59.92;27.42;;;;;;;3.06;94.69;103228.75;5003363;28;20419;-74
2021/03/02 00:59:38;;;;;;;59.53;27.88;;;;;;;3.03;94.54;103218.28;5005100;28;20034;-74
2021/03/02 01:02:04;;;;;;;57.25;28.10;;;;;;;2.78;94.90;103184.72;5022681;28;20389;-74
2021/03/02 01:04:29;;;;;;;59.88;29.48;;;;;;;2.99;94.90;103222.78;5005813;28;20034;-74
2021/03/02 01:06:55;;;;;;;58.88;28.63;;;;;;;2.79;94.87;103190.84;5004344;28;20045;-74
2021/03/02 01:09:20;;;;;;;63.13;29.90;;;;;;;2.59;94.73;103160.66;5005871;28;20044;-74
2021/03/02 01:11:47;;;;;;;63.45;30.33;;;;;;;2.95;94.77;103217.66;5003181;28;20034;-74
2021/03/02 01:14:13;;;;;;;62.45;29.05;;;;;;;2.98;94.83;103214.94;5005038;28;20037;-74
2021/03/02 01:16:39;;;;;;;63.08;29.15;;;;;;;2.96;95.01;103220.25;5004121;28;20496;-74
2021/03/02 01:19:04;;;;;;;63.13;29.65;;;;;;;2.78;95.14;103192.63;5005429;28;20069;-74
2021/03/02 01:21:30;;;;;;;63.13;29.42;;;;;;;2.89;94.85;103221.34;5006342;28;20038;-74
2021/03/02 01:23:55;;;;;;;60.92;28.60;;;;;;;2.87;95.42;103212.59;5003647;28;20045;-74
2021/03/02 01:26:21;;;;;;;63.63;30.30;;;;;;;2.85;95.61;103219.69;5002310;28;20038;-74
2021/03/02 01:28:46;;;;;;;61.45;29.85;;;;;;;2.84;95.73;103216.22;5006228;28;20037;-74
2021/03/02 01:31:12;;;;;;;64.00;31.08;;;;;;;2.83;95.50;103218.88;5013235;28;20038;-74
2021/03/02 01:33:37;;;;;;;58.13;28.98;;;;;;;2.79;95.69;103202.28;5020274;28;20038;-74
2021/03/02 01:36:03;;;;;;;60.80;29.85;;;;;;;2.83;95.48;103208.31;5004423;28;20042;-75
2021/03/02 01:38:28;;;;;;;64.32;29.98;;;;;;;2.82;95.65;103204.81;5004684;28;20025;-74
2021/03/02 01:40:54;;;;;;;69.00;31.65;;;;;;;2.81;96.12;103207.50;5006136;28;20115;-75
2021/03/02 01:43:19;;;;;;;60.10;29.83;;;;;;;2.81;96.00;103199.59;5005620;28;20029;-74
2021/03/02 01:45:46;;;;;;;67.25;30.90;;;;;;;2.81;95.87;103199.59;5003118;28;20400;-74
2021/03/02 01:48:12;;;;;;;62.05;29.58;;;;;;;2.67;95.88;103171.84;5000075;28;20033;-75
2021/03/02 01:50:38;;;;;;;61.22;28.88;;;;;;;2.79;95.43;103197.00;5006178;28;20386;-75
2021/03/02 01:53:03;;;;;;;61.08;28.90;;;;;;;2.74;95.78;103197.13;5006122;28;20448;-75
2021/03/02 01:55:29;;;;;;;63.60;29.88;;;;;;;2.71;95.84;103186.66;5002808;28;20032;-75
2021/03/02 01:57:56;;;;;;;66.03;29.27;;;;;;;2.69;96.07;103185.84;5005371;28;20034;-75
2021/03/02 02:00:29;;;;;;;66.60;30.40;;;;;;;2.67;96.10;103184.16;5005236;28;20489;-75
2021/03/02 02:03:16;;;;;;;64.05;30.00;;;;;;;2.63;96.04;103182.53;5004673;28;20026;-75
2021/03/02 02:05:46;;;;;;;67.57;30.73;;;;;;;2.48;96.37;103162.75;4996666;28;20030;-75
2021/03/02 02:08:15;;;;;;;68.75;31.55;;;;;;;2.55;96.70;103183.63;5006007;28;20026;-75
2021/03/02 02:11:00;;;;;;;71.63;32.13;;;;;;;2.53;96.92;103181.91;5005849;28;20030;-75
2021/03/02 02:13:31;;;;;;;65.60;30.17;;;;;;;2.19;96.63;103124.88;4985635;28;20053;-75
2021/03/02 02:16:01;;;;;;;66.47;30.08;;;;;;;2.47;96.76;103174.19;5000469;28;20034;-75
2021/03/02 02:18:30;;;;;;;66.70;29.63;;;;;;;2.44;96.59;103176.00;5005633;28;20036;-75
2021/03/02 02:21:10;;;;;;;72.72;32.08;;;;;;;2.42;96.89;103176.97;5005960;28;20425;-75
2021/03/02 02:23:48;;;;;;;76.75;31.50;;;;;;;2.39;96.94;103175.25;5010406;28;20124;-75
2021/03/02 02:26:42;;;;;;;72.27;32.07;;;;;;;2.19;97.12;103146.81;5004584;28;20026;-75
2021/03/02 02:29:12;;;;;;;67.78;31.58;;;;;;;2.36;97.05;103177.13;5019811;28;20053;-75
2021/03/02 02:31:39;;;;;;;75.60;32.83;;;;;;;2.33;97.19;103166.66;5007624;28;20038;-75
2021/03/02 02:34:13;;;;;;;71.28;30.38;;;;;;;2.31;97.18;103171.13;5002935;28;20026;-75
2021/03/02 02:36:39;;;;;;;69.88;32.58;;;;;;;2.32;97.47;103173.69;5003253;28;20400;-75
2021/03/02 02:39:06;;;;;;;74.55;31.73;;;;;;;2.25;97.06;103154.56;5004608;28;20034;-75
2021/03/02 02:41:33;;;;;;;77.43;33.60;;;;;;;2.32;97.22;103163.16;5005510;28;20036;-75
2021/03/02 02:44:00;;;;;;;74.60;32.33;;;;;;;2.31;97.04;103163.22;5019271;28;20044;-75
2021/03/02 02:46:26;;;;;;;70.68;31.40;;;;;;;2.28;97.51;103156.25;5002311;28;20048;-75
2021/03/02 02:48:56;;;;;;;72.47;33.28;;;;;;;1.98;97.57;103120.16;5002167;28;20034;-75
2021/03/02 02:51:22;;;;;;;72.22;31.33;;;;;;;2.25;97.43;103156.31;5005948;28;20046;-72
2021/03/02 02:53:47;;;;;;;71.40;32.10;;;;;;;2.13;97.32;103141.72;5004782;28;20038;-73
2021/03/02 02:56:17;;;;;;;70.57;31.25;;;;;;;2.24;97.65;103160.75;5018005;28;20026;-73
2021/03/02 02:59:04;;;;;;;75.90;32.28;;;;;;;2.22;97.25;103162.53;5003743;28;20419;-73
2021/03/02 03:01:33;;;;;;;79.55;32.78;;;;;;;1.86;98.22;103112.59;5005808;28;20025;-73
2021/03/02 03:04:03;;;;;;;69.47;32.58;;;;;;;2.21;98.12;103167.88;5003754;28;20033;-73
2021/03/02 03:06:31;;;;;;;72.85;32.42;;;;;;;2.21;98.14;103170.50;5002347;28;20038;-73
2021/03/02 03:08:59;;;;;;;75.03;32.92;;;;;;;2.18;97.76;103176.69;5007535;28;20034;-73
2021/03/02 03:11:32;;;;;;;67.15;31.38;;;;;;;2.22;97.70;103185.41;5007982;28;20096;-74
2021/03/02 03:13:58;;;;;;;75.30;33.08;;;;;;;2.22;97.42;103174.88;5007474;28;20108;-73
2021/03/02 03:16:24;;;;;;;72.47;33.17;;;;;;;2.22;97.57;103173.09;4986765;28;20026;-73
2021/03/02 03:18:54;;;;;;;69.68;33.95;;;;;;;2.16;97.45;103161.84;5006369;28;20420;-75
2021/03/02 03:21:19;;;;;;;72.03;31.77;;;;;;;2.12;97.66;103166.34;5008872;28;20022;-73
2021/03/02 03:23:47;;;;;;;70.68;32.63;;;;;;;2.10;97.83;103160.25;4988426;28;20030;-73
2021/03/02 03:26:15;;;;;;;75.65;32.22;;;;;;;2.12;97.52;103166.34;5004755;28;20029;-73
2021/03/02 03:28:42;;;;;;;72.05;32.28;;;;;;;2.10;97.54;103160.25;5006091;28;20034;-73
2021/03/02 03:31:11;;;;;;;75.53;34.47;;;;;;;1.90;97.59;103127.38;5009789;28;20544;-73
2021/03/02 03:33:39;;;;;;;73.85;33.55;;;;;;;2.09;98.14;103164.66;4989986;28;20121;-73
2021/03/02 03:36:06;;;;;;;73.32;32.95;;;;;;;2.07;98.25;103161.19;5006362;28;20477;-73
2021/03/02 03:38:31;;;;;;;78.80;34.75;;;;;;;2.02;98.03;103167.50;5005566;28;20073;-73
2021/03/02 03:40:57;;;;;;;72.32;32.78;;;;;;;1.89;98.21;103157.28;5008359;28;20038;-73
2021/03/02 03:43:22;;;;;;;75.90;32.95;;;;;;;1.86;98.22;103156.47;5007686;28;20036;-73
2021/03/02 03:45:48;;;;;;;76.35;34.28;;;;;;;1.90;98.47;103163.41;5005983;28;20030;-73
2021/03/02 03:48:13;;;;;;;78.30;33.40;;;;;;;1.87;98.90;103160.84;5007678;28;20034;-73
2021/03/02 03:50:39;;;;;;;84.30;34.70;;;;;;;1.84;98.95;103161.78;5008655;28;20113;-73
2021/03/02 03:53:06;;;;;;;80.45;34.78;;;;;;;1.80;98.42;103162.75;4989744;28;20342;-73
2021/03/02 03:55:37;;;;;;;85.15;33.92;;;;;;;1.80;98.89;103170.66;5006123;28;20038;-73
2021/03/02 03:58:03;;;;;;;77.13;34.35;;;;;;;1.75;98.81;103170.78;5006793;28;20034;-73
2021/03/02 04:00:30;;;;;;;76.38;34.28;;;;;;;1.73;98.76;103162.03;5007882;28;20056;-73
2021/03/02 04:02:56;;;;;;;81.43;34.72;;;;;;;1.74;99.54;103168.19;5005975;28;20041;-75
2021/03/02 04:05:22;;;;;;;82.82;35.17;;;;;;;1.70;98.78;103156.00;5004204;28;20034;-73
2021/03/02 04:07:48;;;;;;;77.85;34.22;;;;;;;1.68;98.94;103172.69;5008227;28;20042;-73
2021/03/02 04:10:15;;;;;;;83.57;35.58;;;;;;;1.35;98.77;103127.91;5008335;28;20037;-73
2021/03/02 04:12:46;;;;;;;78.03;34.55;;;;;;;1.65;99.12;103164.88;5006946;28;20578;-73
2021/03/02 04:15:21;;;;;;;81.97;34.15;;;;;;;1.62;98.70;103164.09;5003391;28;20550;-73
2021/03/02 04:17:54;;;;;;;82.13;36.00;;;;;;;1.63;98.71;103164.03;5008453;28;20029;-73
2021/03/02 04:20:20;;;;;;;86.57;35.35;;;;;;;1.59;98.97;103161.53;5003241;28;20079;-73
2021/03/02 04:22:46;;;;;;;86.53;35.97;;;;;;;1.56;99.53;103164.25;5007057;28;20026;-73
2021/03/02 04:25:12;;;;;;;78.95;34.40;;;;;;;1.56;99.19;103164.25;5006775;28;20044;-73
2021/03/02 04:27:39;;;;;;;88.68;36.78;;;;;;;1.28;99.37;103121.03;5007960;28;20465;-73
2021/03/02 04:30:06;;;;;;;83.50;34.88;;;;;;;1.49;99.20;103156.50;5007539;28;20041;-73
2021/03/02 04:32:31;;;;;;;90.63;35.67;;;;;;;1.49;98.94;103158.28;5006944;28;20029;-73
2021/03/02 04:34:57;;;;;;;87.38;36.30;;;;;;;1.48;99.05;103162.66;5022337;28;20555;-74
2021/03/02 04:37:22;;;;;;;87.47;36.17;;;;;;;1.47;99.27;103154.81;5004082;28;20026;-73
2021/03/02 04:39:48;;;;;;;92.03;36.70;;;;;;;1.44;98.97;103154.88;5006610;28;20052;-74
2021/03/02 04:42:13;;;;;;;90.75;37.95;;;;;;;1.43;99.42;103153.16;5006666;28;20025;-73
2021/03/02 04:44:39;;;;;;;99.38;38.25;;;;;;;1.38;99.59;103148.00;5006776;28;20129;-73
2021/03/02 04:47:04;;;;;;;86.90;36.35;;;;;;;1.18;99.46;103112.47;5003955;28;20342;-73
2021/03/02 04:49:30;;;;;;;91.60;36.78;;;;;;;1.40;99.70;103153.22;5005899;28;20511;-74
2021/03/02 04:51:55;;;;;;;89.97;37.33;;;;;;;1.37;99.38;103143.63;5007480;28;20061;-73
2021/03/02 04:54:21;;;;;;;93.57;38.15;;;;;;;1.41;99.66;103149.69;5006686;28;20450;-75
2021/03/02 04:56:47;;;;;;;98.20;37.28;;;;;;;1.24;99.50;103123.78;5004680;28;20045;-73
2021/03/02 04:59:12;;;;;;;94.85;38.20;;;;;;;1.21;99.41;103125.56;5004236;28;20212;-73
2021/03/02 05:01:38;;;;;;;97.07;38.42;;;;;;;1.33;99.76;103145.47;5007675;28;20057;-73
2021/03/02 05:04:03;;;;;;;96.45;38.75;;;;;;;1.34;99.73;103143.69;5006324;28;20480;-73
2021/03/02 05:06:29;;;;;;;94.07;38.38;;;;;;;1.30;99.78;103153.44;5005806;28;20060;-73
2021/03/02 05:08:54;;;;;;;97.65;38.50;;;;;;;1.00;100.00;103100.63;5006198;28;20124;-73
2021/03/02 05:11:20;;;;;;;96.20;38.80;;;;;;;1.25;100.00;103142.13;5018613;28;20044;-73
2021/03/02 05:13:46;;;;;;;87.22;36.60;;;;;;;1.20;99.71;103146.66;5007621;28;20342;-73
2021/03/02 05:16:12;;;;;;;97.15;39.45;;;;;;;1.24;100.00;103153.56;5004321;28;20037;-73
2021/03/02 05:18:39;;;;;;;94.05;39.55;;;;;;;1.25;100.00;103154.44;5006084;28;20029;-73
2021/03/02 05:21:04;;;;;;;89.60;37.83;;;;;;;0.98;100.00;103106.84;5004789;28;20038;-73
2021/03/02 05:23:30;;;;;;;90.22;37.50;;;;;;;1.13;100.00;103140.69;5005145;28;20057;-73
2021/03/02 05:25:55;;;;;;;101.50;38.00;;;;;;;1.20;100.00;103149.28;5001960;28;20038;-73
2021/03/02 05:28:21;;;;;;;101.63;39.10;;;;;;;1.18;100.00;103157.19;4998882;28;20103;-73
2021/03/02 05:30:46;;;;;;;96.15;38.53;;;;;;;1.18;100.00;103146.69;4992027;28;20041;-73
2021/03/02 05:33:12;;;;;;;100.03;38.67;;;;;;;0.88;100.00;103093.88;5003758;28;20037;-73
2021/03/02 05:35:37;;;;;;;96.05;38.22;;;;;;;1.12;100.00;103145.94;5004677;28;20465;-73
2021/03/02 05:38:02;;;;;;;103.97;39.80;;;;;;;1.12;100.00;103144.22;5004707;28;20432;-73
2021/03/02 05:40:28;;;;;;;98.35;39.72;;;;;;;1.10;100.00;103140.75;5007227;28;20034;-73
2021/03/02 05:42:54;;;;;;;99.68;39.75;;;;;;;1.09;100.00;103152.16;5004832;28;20033;-73
2021/03/02 05:45:20;;;;;;;102.15;38.35;;;;;;;1.12;100.00;103149.47;5001138;28;20026;-73
2021/03/02 05:47:47;;;;;;;92.70;37.38;;;;;;;1.09;100.00;103144.28;5005199;28;20084;-73
2021/03/02 05:50:14;;;;;;;100.47;39.37;;;;;;;1.08;99.89;103147.78;5019298;28;20033;-73
2021/03/02 05:52:40;;;;;;;94.28;37.45;;;;;;;0.62;99.99;103073.44;5001299;28;20391;-74
2021/03/02 05:55:06;;;;;;;101.47;39.58;;;;;;;0.41;99.96;103036.22;4999893;28;20504;-73
2021/03/02 05:57:33;;;;;;;106.10;40.33;;;;;;;0.91;99.91;103116.63;5001230;28;20713;-73
2021/03/02 06:00:00;;;;;;;107.10;41.22;;;;;;;0.90;100.00;103118.38;4998458;28;20084;-74
2021/03/02 06:02:26;;;;;;;107.00;41.58;;;;;;;1.04;100.00;103135.59;5000838;28;20388;-74
2021/03/02 06:04:51;;;;;;;105.72;40.90;;;;;;;1.02;100.00;103137.41;5006525;28;20033;-74
2021/03/02 06:07:17;;;;;;;110.55;43.20;;;;;;;0.99;100.00;103135.72;5003672;28;20029;-74
2021/03/02 06:09:44;;;;;;;106.45;41.28;;;;;;;0.93;100.00;103127.97;5004658;28;20091;-74
2021/03/02 06:12:10;;;;;;;106.75;41.08;;;;;;;0.95;100.00;103133.19;4994478;28;20038;-74
2021/03/02 06:14:36;;;;;;;117.38;42.65;;;;;;;1.03;100.00;103137.38;5004833;28;20105;-74
2021/03/02 06:17:04;;;;;;;110.30;43.10;;;;;;;1.05;100.00;103140.84;5003211;28;20025;-74
2021/03/02 06:19:36;;;;;;;101.90;41.67;;;;;;;1.06;100.00;103141.69;5003446;28;20037;-73
2021/03/02 06:22:02;;;;;;;105.40;42.75;;;;;;;0.72;100.00;103088.09;5000526;28;20026;-74
2021/03/02 06:24:37;;;;;;;106.47;41.50;;;;;;;1.09;100.00;103143.41;5000826;28;20046;-74
2021/03/02 06:27:13;;;;;;;111.13;41.15;;;;;;;1.10;100.00;103140.75;4997504;28;20029;-74
2021/03/02 06:29:39;;;;;;;100.65;40.47;;;;;;;1.10;100.00;103143.38;5006213;28;20084;-74
2021/03/02 06:32:05;;;;;;;104.60;41.92;;;;;;;1.11;100.00;103142.47;5010491;28;20629;-74
2021/03/02 06:34:31;;;;;;;104.25;41.70;;;;;;;0.98;100.00;103126.09;5004239;28;20030;-73
2021/03/02 06:37:02;;;;;;;106.60;40.70;;;;;;;1.13;100.00;103145.94;4999936;28;20034;-74
2021/03/02 06:39:35;;;;;;;111.57;42.90;;;;;;;1.14;99.85;103144.16;5002601;28;20025;-74
2021/03/02 06:42:15;;;;;;;109.32;43.88;;;;;;;1.15;100.00;103148.53;5001489;28;20188;-73
2021/03/02 06:44:43;;;;;;;105.28;41.28;;;;;;;1.15;100.00;103145.88;5007068;28;20119;-73
2021/03/02 06:47:08;;;;;;;113.93;42.10;;;;;;;1.18;100.00;103143.19;5001030;28;20630;-73
2021/03/02 06:49:39;;;;;;;103.95;40.03;;;;;;;1.11;99.93;103126.69;5003061;28;20037;-73
2021/03/02 06:52:19;;;;;;;106.40;41.72;;;;;;;1.25;99.84;103146.56;4999869;28;20073;-73
2021/03/02 06:54:49;;;;;;;102.05;40.97;;;;;;;1.18;99.46;103143.19;5002448;28;20046;-72
2021/03/02 06:57:23;;;;;;;102.28;42.25;;;;;;;1.25;99.58;103152.66;4998492;28;20050;-73
2021/03/02 06:59:56;;;;;;;104.13;41.13;;;;;;;1.24;99.72;103143.03;4998005;28;20068;-73
2021/03/02 07:02:36;;;;;;;101.50;39.40;;;;;;;1.14;99.88;103117.84;4995077;28;20030;-74
2021/03/02 07:05:18;;;;;;;99.40;40.25;;;;;;;1.29;99.48;103135.06;4998736;28;20034;-72
2021/03/02 07:07:45;;;;;;;103.65;40.58;;;;;;;1.36;99.52;103150.66;4999668;28;20034;-73
2021/03/02 07:10:13;;;;;;;89.97;38.75;;;;;;;1.40;99.42;103140.06;5006215;28;20034;-73
2021/03/02 07:12:42;;;;;;;100.07;42.43;;;;;;;1.49;98.86;103151.22;4994089;28;20036;-74
2021/03/02 07:15:10;;;;;;;99.00;41.45;;;;;;;1.52;98.85;103161.69;4998737;28;20026;-74
2021/03/02 07:17:42;;;;;;;95.25;40.22;;;;;;;1.27;98.54;103114.03;5004991;28;20477;-74
2021/03/02 07:20:10;;;;;;;90.63;39.88;;;;;;;1.58;98.37;103158.03;5018661;28;20022;-74
2021/03/02 07:22:38;;;;;;;95.20;38.53;;;;;;;1.44;97.85;103124.16;5006157;28;20029;-74
2021/03/02 07:25:08;;;;;;;90.32;37.42;;;;;;;1.74;97.94;103163.78;5004505;28;20022;-74
2021/03/02 07:27:37;;;;;;;90.80;39.60;;;;;;;1.75;97.61;103160.25;5005826;28;20038;-74
2021/03/02 07:30:04;;;;;;;85.68;35.95;;;;;;;1.89;97.34;103170.44;5007091;28;20087;-74
2021/03/02 07:32:31;;;;;;;85.20;38.33;;;;;;;1.96;96.88;103158.84;5007449;28;20041;-75
2021/03/02 07:34:57;;;;;;;88.03;38.97;;;;;;;2.11;97.01;103157.56;5004889;28;20120;-74
2021/03/02 07:37:24;;;;;;;91.05;37.78;;;;;;;2.23;96.65;103166.06;5006853;28;20499;-74
2021/03/02 07:40:10;;;;;;;81.50;35.95;;;;;;;2.39;96.44;103172.63;5007196;28;20038;-75
2021/03/02 07:42:36;;;;;;;77.32;36.22;;;;;;;2.29;94.87;103135.13;5004428;28;20065;-74
2021/03/02 07:45:07;;;;;;;75.88;36.13;;;;;;;2.61;94.53;103179.94;5001477;28;20535;-74
2021/03/02 07:47:52;;;;;;;76.00;36.17;;;;;;;2.81;94.19;103186.41;5007121;28;20116;-74
2021/03/02 07:50:30;;;;;;;76.43;34.35;;;;;;;3.00;92.44;103181.44;5006640;28;20032;-74
2021/03/02 07:53:16;;;;;;;63.40;32.00;;;;;;;3.65;89.69;103180.28;5001477;28;20050;-74
2021/03/02 07:55:43;;;;;;;66.20;34.85;;;;;;;4.47;86.31;103171.31;5003580;28;20044;-74
2021/03/02 07:58:15;;;;;;;58.92;33.20;;;;;;;5.52;82.01;103177.03;5004361;28;20034;-74
2021/03/02 08:00:43;;;;;;;60.72;32.22;;;;;;;6.20;77.93;103147.69;4997934;28;20053;-73
2021/03/02 08:03:25;;;;;;;54.03;30.63;;;;;;;7.07;74.73;103188.84;5002660;28;20021;-74
2021/03/02 08:05:56;;;;;;;52.40;30.92;;;;;;;7.43;71.99;103182.72;5006271;28;20037;-74
2021/03/02 08:08:24;;;;;;;50.53;29.98;;;;;;;7.76;71.39;103183.78;5005002;28;20030;-74
2021/03/02 08:10:50;;;;;;;51.55;30.55;;;;;;;8.15;69.44;103182.69;5017630;28;20031;-73
2021/03/02 08:13:42;;;;;;;52.67;30.08;;;;;;;8.65;68.42;103186.31;5003289;28;20520;-73
2021/03/02 08:16:09;;;;;;;48.50;30.08;;;;;;;8.98;66.44;103182.72;4992589;28;20680;-73
2021/03/02 08:18:38;;;;;;;47.05;29.40;;;;;;;9.10;64.70;103159.88;4999319;28;20469;-73
2021/03/02 08:21:14;;;;;;;45.55;29.67;;;;;;;9.31;63.97;103179.13;4996497;28;20439;-73
2021/03/02 08:23:53;;;;;;;44.08;28.30;;;;;;;9.87;63.12;103186.56;5000408;28;20036;-73
2021/03/02 08:26:20;;;;;;;45.55;29.65;;;;;;;10.08;61.50;103170.22;5000336;28;20033;-74
2021/03/02 08:29:16;;;;;;;43.28;28.25;;;;;;;10.33;61.06;103185.59;4997995;28;20026;-73
2021/03/02 08:31:44;;;;;;;40.78;28.40;;;;;;;10.38;59.34;103129.28;4993067;28;20148;-73
2021/03/02 08:34:12;;;;;;;46.03;28.02;;;;;;;11.15;59.16;103182.31;4998968;28;20401;-73
2021/03/02 08:36:38;;;;;;;43.70;27.17;;;;;;;11.41;57.49;103161.88;4996208;28;20030;-73
2021/03/02 08:39:12;;;;;;;36.38;26.50;;;;;;;12.03;54.96;103180.97;4997663;28;20052;-73
2021/03/02 08:41:41;;;;;;;40.25;26.00;;;;;;;12.10;55.86;103182.28;4993807;28;20496;-74
2021/03/02 08:44:06;;;;;;;37.80;25.85;;;;;;;12.69;53.61;103188.88;4992412;28;20297;-73
2021/03/02 08:46:35;;;;;;;35.35;24.90;;;;;;;13.11;52.93;103172.50;4992152;28;20030;-73
2021/03/02 08:49:11;;;;;;;32.20;24.70;;;;;;;13.40;52.35;103174.88;4997283;28;20390;-73
2021/03/02 08:51:38;;;;;;;32.25;23.52;;;;;;;13.00;51.87;103117.00;4983896;28;980699;-74
2021/03/02 08:54:04;;;;;;;30.85;23.55;;;;;;;14.26;49.79;103180.84;4994205;28;20042;-73
2021/03/02 08:56:31;;;;;;;28.70;22.70;;;;;;;14.27;48.26;103152.16;5014083;28;20114;-74
2021/03/02 08:59:11;;;;;;;27.27;21.65;;;;;;;14.67;47.73;103179.44;4999048;28;20036;-74
2021/03/02 09:01:40;;;;;;;28.10;21.38;;;;;;;15.00;46.70;103168.75;4998418;28;20021;-74
2021/03/02 09:04:06;;;;;;;29.30;21.60;;;;;;;14.79;48.25;103177.56;4993299;28;20055;-73
2021/03/02 09:06:32;;;;;;;24.45;20.00;;;;;;;15.29;47.60;103171.72;4991185;28;20059;-73
2021/03/02 09:09:23;;;;;;;24.55;19.92;;;;;;;15.00;48.12;103174.97;5003356;28;20056;-76
2021/03/02 09:11:57;;;;;;;24.77;19.08;;;;;;;15.76;45.65;103181.31;5001084;28;20105;-73
2021/03/02 09:14:33;;;;;;;34.42;26.70;;;;;;;15.68;44.84;103148.78;5006467;28;20046;-74
2021/03/02 09:17:06;;;;;;;24.15;19.67;;;;;;;14.49;47.68;103164.75;5000802;28;20022;-73
2021/03/02 09:19:39;;;;;;;23.77;18.90;;;;;;;14.53;47.04;103160.84;5003029;28;20160;-73
2021/03/02 09:22:13;;;;;;;23.33;18.55;;;;;;;13.35;49.71;103169.84;5004952;28;20041;-73
2021/03/02 09:24:53;;;;;;;25.20;19.75;;;;;;;12.34;53.50;103182.41;5005815;28;20053;-73
2021/03/02 09:27:20;;;;;;;27.17;19.05;;;;;;;11.42;56.49;103162.75;5002717;28;20034;-73
2021/03/02 09:29:47;;;;;;;28.00;20.17;;;;;;;10.77;59.18;103178.47;5005734;28;20040;-73
2021/03/02 09:32:15;;;;;;;30.92;19.23;;;;;;;10.19;60.87;103167.75;5006640;28;20460;-72
2021/03/02 09:34:46;;;;;;;29.95;20.38;;;;;;;9.94;62.94;103165.72;5004860;28;20103;-72
2021/03/02 09:37:15;;;;;;;28.33;19.40;;;;;;;9.70;61.29;103133.38;5001192;28;20037;-73
2021/03/02 09:39:43;;;;;;;27.23;18.52;;;;;;;9.64;63.04;103178.09;4998330;28;20042;-73
2021/03/02 09:42:21;;;;;;;28.08;19.05;;;;;;;9.55;65.06;103189.31;5002942;28;20040;-72
2021/03/02 09:44:50;;;;;;;30.20;19.50;;;;;;;9.03;65.13;103099.88;4996318;28;20030;-73
2021/03/02 09:47:23;;;;;;;28.65;19.00;;;;;;;9.54;65.08;103187.59;4998879;28;20095;-73
2021/03/02 09:49:59;;;;;;;29.88;19.60;;;;;;;9.57;66.03;103186.56;5005526;28;20048;-73
2021/03/02 09:52:33;;;;;;;29.90;18.67;;;;;;;9.41;66.10;103184.78;5019144;28;20049;-73
2021/03/02 09:55:14;;;;;;;27.42;18.60;;;;;;;9.40;66.87;103182.19;5004103;28;20037;-73
2021/03/02 09:57:58;;;;;;;23.83;16.42;;;;;;;9.35;66.01;103177.13;5003919;28;20088;-72
2021/03/02 10:00:26;;;;;;;26.95;17.27;;;;;;;9.49;65.89;103171.88;5003656;28;20556;-73
2021/03/02 10:02:56;;;;;;;26.27;17.85;;;;;;;9.49;65.94;103171.88;5006432;28;20084;-72
2021/03/02 10:05:37;;;;;;;25.70;16.63;;;;;;;9.38;66.24;103165.41;5003696;28;20041;-73
2021/03/02 10:08:36;;;;;;;28.05;17.38;;;;;;;9.48;65.08;103167.47;5004406;28;20034;-73
2021/03/02 10:11:11;;;;;;;25.98;17.45;;;;;;;9.47;66.83;103164.91;5002356;28;20112;-72
2021/03/02 10:13:58;;;;;;;26.67;16.48;;;;;;;9.53;66.48;103166.38;5002232;28;20029;-73
2021/03/02 10:16:35;;;;;;;24.90;16.60;;;;;;;9.46;66.69;103172.03;4998285;28;20028;-73
2021/03/02 10:19:23;;;;;;;24.48;17.10;;;;;;;9.45;66.88;103167.66;4998199;28;20451;-73
2021/03/02 10:21:58;;;;;;;29.63;17.77;;;;;;;9.61;66.12;103169.44;4992258;28;20034;-73
2021/03/02 10:24:35;;;;;;;25.40;16.80;;;;;;;9.70;66.39;103173.38;4999322;28;20112;-73
2021/03/02 10:27:09;;;;;;;26.67;16.63;;;;;;;9.71;65.48;103154.59;4991141;28;20836;-73
2021/03/02 10:29:34;;;;;;;24.95;16.27;;;;;;;9.92;64.65;103175.63;4998132;28;20212;-73
2021/03/02 10:32:02;;;;;;;22.98;15.98;;;;;;;9.85;65.45;103169.78;4995374;28;20452;-73
2021/03/02 10:34:33;;;;;;;23.08;15.93;;;;;;;9.85;65.51;103172.47;4996381;28;20028;-73
2021/03/02 10:37:00;;;;;;;25.88;15.52;;;;;;;9.89;65.79;103170.47;4992160;28;20164;-73
2021/03/02 10:39:27;;;;;;;27.30;16.20;;;;;;;9.81;66.40;103149.59;4998422;28;20327;-73
2021/03/02 10:41:52;;;;;;;24.35;16.75;;;;;;;9.90;66.19;103165.06;5013865;28;20694;-73
2021/03/02 10:44:19;;;;;;;27.13;16.40;;;;;;;10.03;66.87;103162.50;4999277;28;20096;-73
2021/03/02 10:46:45;;;;;;;27.30;16.02;;;;;;;9.98;65.40;103137.91;4993346;28;20532;-73
2021/03/02 10:49:11;;;;;;;24.17;15.55;;;;;;;10.23;65.35;103161.28;4977111;28;20092;-73
2021/03/02 10:51:37;;;;;;;23.52;15.90;;;;;;;10.26;66.20;103168.22;4997576;28;20062;-73
2021/03/02 10:54:03;;;;;;;22.70;16.17;;;;;;;10.25;65.30;103163.84;4994696;28;20030;-73
2021/03/02 10:56:28;;;;;;;24.88;15.88;;;;;;;10.28;66.40;103161.00;4976046;28;20500;-73
2021/03/02 10:58:54;;;;;;;22.17;15.60;;;;;;;10.11;65.69;103117.53;4996607;28;20165;-74
2021/03/02 11:01:22;;;;;;;23.77;14.82;;;;;;;10.46;64.98;103159.03;4998396;28;20029;-73
2021/03/02 11:03:49;;;;;;;20.95;15.15;;;;;;;10.19;64.25;103109.03;4997569;28;20041;-73
2021/03/02 11:06:16;;;;;;;24.50;15.32;;;;;;;10.47;64.84;103157.22;4995559;28;20033;-73
2021/03/02 11:08:44;;;;;;;26.02;16.05;;;;;;;10.50;64.74;103157.03;4996638;28;20493;-74
2021/03/02 11:11:10;;;;;;;23.65;14.93;;;;;;;10.56;64.42;103156.63;4994520;28;20034;-74
2021/03/02 11:13:35;;;;;;;24.17;15.98;;;;;;;10.62;63.53;103152.72;4995838;28;20038;-74
2021/03/02 11:16:01;;;;;;;22.38;15.88;;;;;;;10.62;64.45;103147.38;4994783;28;20556;-73
2021/03/02 11:18:27;;;;;;;24.30;15.88;;;;;;;10.60;64.86;103134.16;4996480;28;20560;-74
2021/03/02 11:20:52;;;;;;;23.48;15.55;;;;;;;10.72;64.39;103133.38;4995650;28;20088;-73
2021/03/02 11:23:18;;;;;;;22.15;15.48;;;;;;;10.72;63.92;103136.03;4994548;28;20025;-73